Time;durP1;ratioP1;P1;durP2;ratioP2;P2;SDS_P1;SDS_P2;PMS_P1;PMS_P2;Temp;Humidity;BMP_temperature;BMP_pressure;BME280_temperature;BME280_humidity;BME280_pressure;Samples;Min_cycle;Max_cycle;Signal;HPM_P1;HPM_P2
2022/01/03 00:01:07;;;;;;;9.77;2.90;;;;;;;;;;5067444;28;20187;-61
2022/01/03 00:03:34;;;;;;;9.27;3.17;;;;;;;;;;5067896;28;20024;-61
2022/01/03 00:06:01;;;;;;;10.07;3.20;;;;;;;;;;5068507;28;20526;-61
2022/01/03 00:08:29;;;;;;;18.00;3.80;;;;;;;;;;5072558;28;20546;-61
2022/01/03 00:10:57;;;;;;;5.57;3.00;;;;;;;;;;5072838;28;20020;-61
2022/01/03 00:13:24;;;;;;;7.17;2.90;;;;;;;;;;5072635;28;20017;-61
2022/01/03 00:15:52;;;;;;;7.77;3.47;;;;;;;;;;5072511;28;20167;-61
2022/01/03 00:18:19;;;;;;;11.20;3.37;;;;;;;;;;5071538;28;20074;-61
2022/01/03 00:20:50;;;;;;;6.87;2.83;;;;;;;;;;5067457;28;20043;-61
2022/01/03 00:23:18;;;;;;;8.67;3.23;;;;;;;;;;5067647;28;20074;-61
2022/01/03 00:25:51;;;;;;;9.37;3.47;;;;;;;;;;5067544;28;20039;-61
2022/01/03 00:28:25;;;;;;;10.30;3.13;;;;;;;;;;5068332;28;20032;-61
2022/01/03 00:30:54;;;;;;;9.13;3.10;;;;;;;;;;5072379;28;20039;-60
2022/01/03 00:33:22;;;;;;;8.40;3.30;;;;;;;;;;5072473;28;20027;-60
2022/01/03 00:35:53;;;;;;;9.33;3.37;;;;;;;;;;5072326;28;20467;-61
2022/01/03 00:38:21;;;;;;;13.03;4.47;;;;;;;;;;5072264;28;20025;-61
2022/01/03 00:40:48;;;;;;;14.90;3.73;;;;;;;;;;5070648;28;20036;-60
2022/01/03 00:43:16;;;;;;;9.87;3.20;;;;;;;;;;5067010;28;20430;-61
2022/01/03 00:45:43;;;;;;;9.37;3.37;;;;;;;;;;5067449;28;20422;-60
2022/01/03 00:48:10;;;;;;;6.47;3.20;;;;;;;;;;5067401;28;20055;-61
2022/01/03 00:50:37;;;;;;;11.00;3.10;;;;;;;;;;5068592;28;20035;-61
2022/01/03 00:53:04;;;;;;;6.67;3.53;;;;;;;;;;5071472;28;20024;-60
2022/01/03 00:55:31;;;;;;;9.07;3.73;;;;;;;;;;5072358;28;20052;-61
2022/01/03 00:58:07;;;;;;;7.13;3.50;;;;;;;;;;5071878;28;20064;-61
2022/01/03 01:00:36;;;;;;;7.47;3.17;;;;;;;;;;5072163;28;20067;-61
2022/01/03 01:03:12;;;;;;;5.90;3.70;;;;;;;;;;5070391;28;20052;-61
2022/01/03 01:05:40;;;;;;;4.93;3.20;;;;;;;;;;5067193;28;20028;-60
2022/01/03 01:08:07;;;;;;;7.10;3.80;;;;;;;;;;5067234;28;20352;-61
2022/01/03 01:10:35;;;;;;;10.87;5.43;;;;;;;;;;5066844;28;20040;-61
2022/01/03 01:13:02;;;;;;;6.63;3.57;;;;;;;;;;5068060;28;20095;-61
2022/01/03 01:15:30;;;;;;;10.20;3.53;;;;;;;;;;5072078;28;20495;-60
2022/01/03 01:17:57;;;;;;;12.73;3.10;;;;;;;;;;5072147;28;20035;-60
2022/01/03 01:20:25;;;;;;;4.13;2.87;;;;;;;;;;5071876;28;20060;-60
2022/01/03 01:23:01;;;;;;;7.97;3.03;;;;;;;;;;5071985;28;20027;-60
2022/01/03 01:28:04;;;;;;;9.40;3.70;;;;;;;;;;5066989;28;20290;-60
2022/01/03 01:30:31;;;;;;;10.00;2.63;;;;;;;;;;5067007;28;20025;-60
2022/01/03 01:33:05;;;;;;;9.47;2.47;;;;;;;;;;5066901;28;20387;-61
2022/01/03 01:35:46;;;;;;;14.15;2.85;;;;;;;;;;5068351;28;20549;-60
2022/01/03 01:38:17;;;;;;;15.10;3.10;;;;;;;;;;5071600;28;20036;-60
2022/01/03 01:40:48;;;;;;;4.67;2.40;;;;;;;;;;5071888;28;20507;-60
2022/01/03 01:43:18;;;;;;;11.27;3.10;;;;;;;;;;5071842;28;20020;-61
2022/01/03 01:45:47;;;;;;;5.60;2.20;;;;;;;;;;5070882;28;20021;-61
2022/01/03 01:48:14;;;;;;;2.70;1.73;;;;;;;;;;5068675;28;20130;-61
2022/01/03 01:50:41;;;;;;;4.13;2.23;;;;;;;;;;5066719;28;20028;-61
2022/01/03 01:53:10;;;;;;;4.50;2.13;;;;;;;;;;5066552;28;20056;-60
2022/01/03 01:55:40;;;;;;;8.47;2.37;;;;;;;;;;5066082;28;20028;-60
2022/01/03 01:58:18;;;;;;;10.43;2.23;;;;;;;;;;5068859;28;20489;-60
2022/01/03 02:00:49;;;;;;;7.13;2.37;;;;;;;;;;5071420;28;20029;-60
2022/01/03 02:03:20;;;;;;;12.93;2.80;;;;;;;;;;5071675;28;20565;-60
2022/01/03 02:19:03;;;;;;;4.50;1.90;;;;;;;;;;5190552;27;20391;-61
2022/01/03 02:21:29;;;;;;;4.93;2.20;;;;;;;;;;5186603;27;20034;-61
2022/01/03 02:23:56;;;;;;;4.63;1.80;;;;;;;;;;5186699;27;20026;-61
2022/01/03 02:29:56;;;;;;;3.10;1.37;;;;;;;;;;5089551;27;2229914;-61
2022/01/03 02:34:51;;;;;;;10.20;2.50;;;;;;;;;;5090115;28;20471;-60
2022/01/03 02:37:18;;;;;;;27.17;4.40;;;;;;;;;;5090001;28;20046;-60
2022/01/03 02:39:45;;;;;;;7.40;1.70;;;;;;;;;;5089793;28;20070;-62
2022/01/03 02:42:12;;;;;;;6.53;2.53;;;;;;;;;;5087007;28;20073;-62
2022/01/03 02:44:38;;;;;;;4.67;1.90;;;;;;;;;;5084391;28;20077;-62
2022/01/03 02:47:05;;;;;;;5.27;2.07;;;;;;;;;;5084773;28;20040;-59
2022/01/03 02:49:32;;;;;;;5.73;2.47;;;;;;;;;;5084691;28;20044;-61
2022/01/03 02:51:59;;;;;;;7.00;2.10;;;;;;;;;;5086501;28;20103;-62
2022/01/03 02:54:26;;;;;;;4.90;2.30;;;;;;;;;;5089639;28;20474;-61
2022/01/03 02:58:31;;;;;;;4.50;2.20;;;;;;;;;;5080107;27;2236437;-59
2022/01/03 03:00:57;;;;;;;5.63;1.87;;;;;;;;;;5130950;27;20031;-59
2022/01/03 03:06:45;;;;;;;12.83;2.40;;;;;;;;;;5064947;28;20484;-59
2022/01/03 03:10:06;;;;;;;7.13;2.20;;;;;;;;;;5074895;27;2239820;-60
2022/01/03 03:13:46;;;;;;;4.77;1.83;;;;;;;;;;5086243;28;20417;-59
2022/01/03 03:16:13;;;;;;;4.63;1.90;;;;;;;;;;5089852;28;20028;-59
2022/01/03 03:18:43;;;;;;;3.90;2.20;;;;;;;;;;5089968;28;20049;-60
2022/01/03 03:21:10;;;;;;;5.37;2.23;;;;;;;;;;5089897;28;20020;-59
2022/01/03 03:23:37;;;;;;;4.73;1.70;;;;;;;;;;5089835;28;20102;-59
2022/01/03 03:26:04;;;;;;;3.87;1.93;;;;;;;;;;5088502;28;20027;-59
2022/01/03 03:28:31;;;;;;;6.10;1.90;;;;;;;;;;5084432;28;20048;-59
2022/01/03 03:30:59;;;;;;;3.13;1.60;;;;;;;;;;5084638;28;20032;-60
2022/01/03 03:33:29;;;;;;;4.23;1.47;;;;;;;;;;5084322;28;20486;-61
2022/01/03 03:35:56;;;;;;;8.83;1.93;;;;;;;;;;5085081;28;20044;-61
2022/01/03 03:38:23;;;;;;;2.70;1.60;;;;;;;;;;5089606;28;20016;-61
2022/01/03 03:40:50;;;;;;;2.80;1.50;;;;;;;;;;5089540;28;20078;-59
2022/01/03 03:43:17;;;;;;;3.63;1.70;;;;;;;;;;5089197;28;20033;-62
2022/01/03 03:45:45;;;;;;;5.37;2.07;;;;;;;;;;5089528;28;20032;-60
2022/01/03 03:48:12;;;;;;;6.20;1.70;;;;;;;;;;5088014;28;20111;-59
2022/01/03 03:50:39;;;;;;;5.17;2.00;;;;;;;;;;5083609;28;20067;-61
2022/01/03 03:53:06;;;;;;;3.23;1.97;;;;;;;;;;5084204;28;20043;-60
2022/01/03 03:55:33;;;;;;;5.63;1.97;;;;;;;;;;5084177;28;20058;-59
2022/01/03 03:58:00;;;;;;;10.07;2.00;;;;;;;;;;5084617;28;20016;-59
2022/01/03 04:00:27;;;;;;;9.10;2.17;;;;;;;;;;5089202;28;20046;-59
2022/01/03 04:02:54;;;;;;;3.33;1.40;;;;;;;;;;5088587;28;20466;-60
2022/01/03 04:05:21;;;;;;;4.37;1.70;;;;;;;;;;5089093;28;20496;-59
2022/01/03 04:07:48;;;;;;;6.40;1.90;;;;;;;;;;5088750;28;20048;-59
2022/01/03 04:10:17;;;;;;;3.00;1.37;;;;;;;;;;5088113;28;20016;-59
2022/01/03 04:12:45;;;;;;;4.23;1.70;;;;;;;;;;5083641;28;20056;-59
2022/01/03 04:15:12;;;;;;;4.60;2.07;;;;;;;;;;5083930;28;20067;-59
2022/01/03 04:17:39;;;;;;;3.97;1.60;;;;;;;;;;5083575;28;20110;-59
2022/01/03 04:20:07;;;;;;;2.47;1.30;;;;;;;;;;5083910;28;20027;-59
2022/01/03 04:22:33;;;;;;;4.80;1.67;;;;;;;;;;5088524;28;20031;-59
2022/01/03 04:25:00;;;;;;;1.97;1.30;;;;;;;;;;5075758;28;20054;-59
2022/01/03 04:27:27;;;;;;;3.57;1.67;;;;;;;;;;5075023;28;20028;-59
2022/01/03 04:29:54;;;;;;;3.00;1.60;;;;;;;;;;5075236;28;20028;-59
2022/01/03 04:32:20;;;;;;;2.00;1.13;;;;;;;;;;5074624;28;20032;-59
2022/01/03 04:34:47;;;;;;;1.87;1.10;;;;;;;;;;5070041;28;20082;-59
2022/01/03 04:37:14;;;;;;;3.47;1.60;;;;;;;;;;5069662;28;20091;-59
2022/01/03 04:39:41;;;;;;;3.00;1.20;;;;;;;;;;5069798;28;20029;-59
2022/01/03 04:42:08;;;;;;;2.67;1.00;;;;;;;;;;5069771;28;20434;-59
2022/01/03 04:44:35;;;;;;;2.00;1.13;;;;;;;;;;5074700;28;20032;-59
2022/01/03 04:47:02;;;;;;;2.13;1.17;;;;;;;;;;5074875;28;20032;-59
2022/01/03 04:49:29;;;;;;;1.90;1.20;;;;;;;;;;5074691;28;20056;-59
2022/01/03 04:51:55;;;;;;;4.00;1.67;;;;;;;;;;5074730;28;20031;-59
2022/01/03 04:54:22;;;;;;;3.27;1.37;;;;;;;;;;5074214;28;20100;-59
2022/01/03 04:56:49;;;;;;;3.97;1.33;;;;;;;;;;5069525;28;20031;-59
2022/01/03 04:59:16;;;;;;;2.80;1.03;;;;;;;;;;5069265;28;20035;-59
2022/01/03 05:01:43;;;;;;;2.13;1.10;;;;;;;;;;5069628;28;20019;-59
2022/01/03 05:04:09;;;;;;;1.43;0.90;;;;;;;;;;5069295;28;20082;-59
2022/01/03 05:06:36;;;;;;;1.63;1.00;;;;;;;;;;5073789;28;20029;-59
2022/01/03 05:09:03;;;;;;;5.10;1.20;;;;;;;;;;5074372;28;20024;-59
2022/01/03 05:11:30;;;;;;;2.03;0.80;;;;;;;;;;5074189;28;20046;-59
2022/01/03 05:13:56;;;;;;;7.90;1.33;;;;;;;;;;5074354;28;20064;-59
2022/01/03 05:16:23;;;;;;;2.87;0.93;;;;;;;;;;5074176;28;20033;-59
2022/01/03 05:18:50;;;;;;;1.93;0.90;;;;;;;;;;5069048;28;20028;-59
2022/01/03 05:21:17;;;;;;;2.10;1.10;;;;;;;;;;5069131;28;20024;-60
2022/01/03 05:23:43;;;;;;;3.03;0.70;;;;;;;;;;5069125;28;20665;-59
2022/01/03 05:26:11;;;;;;;2.07;0.80;;;;;;;;;;5068624;28;20025;-59
2022/01/03 05:28:38;;;;;;;1.80;0.70;;;;;;;;;;5073025;28;20168;-59
2022/01/03 05:31:06;;;;;;;4.50;1.43;;;;;;;;;;5073973;28;20407;-59
2022/01/03 05:33:32;;;;;;;4.80;0.60;;;;;;;;;;5073350;28;20448;-59
2022/01/03 05:35:59;;;;;;;5.67;0.60;;;;;;;;;;5072978;28;20395;-58
2022/01/03 05:38:26;;;;;;;1.20;0.63;;;;;;;;;;5073779;28;20052;-59
2022/01/03 05:40:53;;;;;;;4.20;0.80;;;;;;;;;;5069354;28;20039;-59
2022/01/03 05:43:19;;;;;;;4.33;0.40;;;;;;;;;;5068480;28;20024;-59
2022/01/03 05:45:47;;;;;;;0.50;0.40;;;;;;;;;;5068611;28;20035;-59
2022/01/03 05:48:13;;;;;;;1.20;0.30;;;;;;;;;;5068641;28;20391;-59
2022/01/03 05:50:40;;;;;;;0.70;0.37;;;;;;;;;;5072306;28;20437;-58
2022/01/03 05:53:07;;;;;;;1.47;0.57;;;;;;;;;;5073183;28;20505;-58
2022/01/03 05:55:34;;;;;;;3.33;1.20;;;;;;;;;;5073345;28;20020;-59
2022/01/03 05:58:00;;;;;;;3.43;0.80;;;;;;;;;;5073108;28;20032;-58
2022/01/03 06:00:28;;;;;;;1.33;0.60;;;;;;;;;;5073372;28;20144;-59
2022/01/03 06:02:57;;;;;;;2.73;0.80;;;;;;;;;;5069263;28;20035;-59
2022/01/03 06:08:04;;;;;;;0.70;0.50;;;;;;;;;;5068155;28;20106;-59
2022/01/03 06:10:31;;;;;;;3.07;0.57;;;;;;;;;;5067930;28;20025;-59
2022/01/03 06:12:57;;;;;;;3.63;0.57;;;;;;;;;;5071698;28;20028;-59
2022/01/03 06:15:25;;;;;;;1.30;0.50;;;;;;;;;;5072501;28;20032;-58
2022/01/03 06:17:52;;;;;;;1.33;0.30;;;;;;;;;;5073159;28;20078;-59
2022/01/03 06:20:19;;;;;;;0.63;0.23;;;;;;;;;;5073088;28;20031;-58
2022/01/03 06:22:46;;;;;;;0.80;0.30;;;;;;;;;;5072793;28;20056;-58
2022/01/03 06:25:13;;;;;;;1.40;0.40;;;;;;;;;;5068477;28;20028;-59
2022/01/03 06:27:40;;;;;;;0.87;0.50;;;;;;;;;;5067620;28;20032;-58
2022/01/03 06:30:07;;;;;;;1.70;0.50;;;;;;;;;;5067878;28;20047;-58
2022/01/03 06:32:35;;;;;;;1.97;0.50;;;;;;;;;;5067642;28;20406;-59
2022/01/03 06:35:02;;;;;;;0.80;0.30;;;;;;;;;;5070960;28;20020;-58
2022/01/03 06:37:28;;;;;;;1.13;0.40;;;;;;;;;;5072814;28;20021;-59
2022/01/03 06:39:55;;;;;;;0.97;0.50;;;;;;;;;;5072717;28;20040;-59
2022/01/03 06:42:22;;;;;;;3.80;0.30;;;;;;;;;;5071929;28;20036;-59
2022/01/03 06:44:49;;;;;;;0.33;0.23;;;;;;;;;;5072803;28;20055;-58
2022/01/03 06:47:17;;;;;;;0.87;0.30;;;;;;;;;;5068761;28;20024;-58
2022/01/03 06:49:44;;;;;;;1.37;0.53;;;;;;;;;;5067543;28;20036;-59
2022/01/03 06:52:11;;;;;;;3.20;0.50;;;;;;;;;;5067495;28;20035;-58
2022/01/03 06:54:38;;;;;;;4.77;0.40;;;;;;;;;;5067197;28;20078;-59
2022/01/03 06:57:04;;;;;;;1.27;0.40;;;;;;;;;;5070290;28;20029;-58
2022/01/03 06:59:31;;;;;;;0.40;0.20;;;;;;;;;;5072355;28;20051;-58
2022/01/03 07:01:58;;;;;;;1.50;0.40;;;;;;;;;;5072362;28;20033;-59
2022/01/03 07:04:25;;;;;;;1.03;0.60;;;;;;;;;;5072517;28;20089;-58
2022/01/03 07:06:51;;;;;;;1.90;0.80;;;;;;;;;;5072359;28;20021;-58
2022/01/03 07:09:18;;;;;;;0.97;0.43;;;;;;;;;;5069085;28;20431;-58
2022/01/03 07:11:45;;;;;;;0.30;0.30;;;;;;;;;;5067338;28;20471;-58
2022/01/03 07:19:36;;;;;;;1.13;0.43;;;;;;;;;;5070996;28;20431;-58
2022/01/03 07:22:05;;;;;;;1.30;0.33;;;;;;;;;;5072370;28;20024;-58
2022/01/03 07:24:32;;;;;;;0.60;0.10;;;;;;;;;;5072033;28;20020;-58
2022/01/03 07:27:01;;;;;;;0.60;0.30;;;;;;;;;;5072248;28;20048;-58
2022/01/03 07:29:28;;;;;;;0.17;0.10;;;;;;;;;;5072223;28;20370;-58
2022/01/03 07:31:54;;;;;;;0.33;0.20;;;;;;;;;;5067850;28;20295;-58
2022/01/03 07:34:21;;;;;;;0.60;0.13;;;;;;;;;;5067195;28;20082;-58
2022/01/03 07:36:48;;;;;;;0.13;0.10;;;;;;;;;;5066775;28;20050;-58
2022/01/03 07:39:15;;;;;;;1.23;0.20;;;;;;;;;;5067028;28;20399;-58
2022/01/03 07:41:42;;;;;;;1.07;0.30;;;;;;;;;;5069898;28;20023;-58
2022/01/03 07:44:09;;;;;;;0.77;0.20;;;;;;;;;;5072195;28;20029;-58
2022/01/03 07:46:35;;;;;;;2.43;1.10;;;;;;;;;;5072279;28;20090;-58
2022/01/03 07:49:04;;;;;;;0.40;0.13;;;;;;;;;;5071802;28;20254;-58
2022/01/03 07:51:31;;;;;;;1.77;0.40;;;;;;;;;;5071858;28;20163;-58
2022/01/03 07:53:58;;;;;;;2.70;0.30;;;;;;;;;;5068308;28;20575;-58
2022/01/03 07:56:25;;;;;;;2.40;0.37;;;;;;;;;;5066296;28;20257;-58
2022/01/03 07:58:51;;;;;;;2.53;0.30;;;;;;;;;;5067785;28;20107;-58
2022/01/03 08:01:18;;;;;;;1.70;0.30;;;;;;;;;;5070760;28;20025;-58
2022/01/03 08:03:45;;;;;;;0.77;0.17;;;;;;;;;;5073405;28;20111;-58
2022/01/03 08:06:12;;;;;;;1.03;0.30;;;;;;;;;;5075448;28;20253;-58
2022/01/03 08:08:39;;;;;;;0.40;0.10;;;;;;;;;;5075606;28;20338;-58
2022/01/03 08:11:06;;;;;;;3.10;0.20;;;;;;;;;;5075667;28;20415;-58
2022/01/03 08:13:33;;;;;;;4.93;0.43;;;;;;;;;;5075011;28;20071;-58
2022/01/03 08:16:00;;;;;;;0.70;0.20;;;;;;;;;;5072087;28;21085;-58
2022/01/03 08:18:26;;;;;;;0.33;0.10;;;;;;;;;;5070146;28;20032;-59
2022/01/03 08:20:53;;;;;;;0.63;0.20;;;;;;;;;;5070184;28;20250;-58
2022/01/03 08:23:21;;;;;;;0.10;0.10;;;;;;;;;;5070106;28;20502;-58
2022/01/03 08:25:47;;;;;;;0.40;0.10;;;;;;;;;;5072767;28;20412;-58
2022/01/03 08:28:14;;;;;;;0.30;0.30;;;;;;;;;;5074823;28;20252;-58
2022/01/03 08:30:41;;;;;;;0.37;0.20;;;;;;;;;;5075051;28;20277;-58
2022/01/03 08:33:08;;;;;;;0.50;0.10;;;;;;;;;;5075220;28;20296;-58
2022/01/03 08:35:35;;;;;;;0.20;0.17;;;;;;;;;;5075244;28;20348;-58
2022/01/03 08:38:04;;;;;;;1.00;0.50;;;;;;;;;;5071820;28;20269;-60
2022/01/03 08:40:34;;;;;;;0.37;0.20;;;;;;;;;;5066670;28;20678;-58
2022/01/03 08:43:01;;;;;;;0.63;0.30;;;;;;;;;;5069522;28;20249;-59
2022/01/03 08:45:28;;;;;;;0.70;0.30;;;;;;;;;;5070022;28;20292;-58
2022/01/03 08:47:54;;;;;;;1.23;0.40;;;;;;;;;;5071945;28;20250;-58
2022/01/03 08:50:21;;;;;;;0.27;0.13;;;;;;;;;;5074868;28;20352;-58
2022/01/03 08:52:48;;;;;;;0.37;0.20;;;;;;;;;;5074650;28;20635;-58
2022/01/03 08:55:15;;;;;;;1.10;0.20;;;;;;;;;;5074389;28;20265;-58
2022/01/03 08:57:43;;;;;;;0.40;0.20;;;;;;;;;;5074223;28;20328;-58
2022/01/03 09:00:13;;;;;;;0.20;0.10;;;;;;;;;;5071753;28;20261;-58
2022/01/03 09:02:41;;;;;;;0.60;0.40;;;;;;;;;;5069540;28;20253;-58
2022/01/03 09:05:08;;;;;;;0.77;0.37;;;;;;;;;;5069301;28;20261;-58
2022/01/03 09:07:36;;;;;;;0.53;0.30;;;;;;;;;;5069424;28;20302;-58
2022/01/03 09:10:03;;;;;;;0.23;0.20;;;;;;;;;;5071520;28;20257;-58
2022/01/03 09:12:30;;;;;;;0.40;0.20;;;;;;;;;;5074035;28;20681;-58
2022/01/03 09:14:58;;;;;;;0.33;0.10;;;;;;;;;;5073779;28;20284;-58
2022/01/03 09:17:25;;;;;;;0.40;0.30;;;;;;;;;;5074265;28;20257;-58
2022/01/03 09:19:52;;;;;;;0.87;0.40;;;;;;;;;;5074216;28;20257;-58
2022/01/03 09:22:25;;;;;;;0.63;0.40;;;;;;;;;;5071673;28;20871;-58
2022/01/03 09:28:48;;;;;;;1.03;0.43;;;;;;;;;;5068898;28;20410;-58
2022/01/03 09:30:25;;;;;;;0.70;0.30;;;;;;;;;;5068971;28;20265;-58
2022/01/03 09:32:51;;;;;;;2.23;0.40;;;;;;;;;;5071837;28;20716;-58
2022/01/03 09:35:18;;;;;;;1.13;0.30;;;;;;;;;;5073390;28;20265;-57
2022/01/03 09:40:49;;;;;;;0.83;0.40;;;;;;;;;;5073469;28;20608;-58
2022/01/03 09:43:18;;;;;;;1.23;0.57;;;;;;;;;;5073888;28;20339;-58
2022/01/03 09:45:48;;;;;;;0.63;0.43;;;;;;;;;;5068549;28;20608;-58
2022/01/03 09:48:15;;;;;;;0.23;0.23;;;;;;;;;;5068519;28;20336;-58
2022/01/03 09:50:43;;;;;;;0.53;0.27;;;;;;;;;;5068623;28;20249;-58
2022/01/03 09:53:10;;;;;;;0.30;0.20;;;;;;;;;;5068539;28;20288;-58
2022/01/03 09:55:37;;;;;;;0.93;0.40;;;;;;;;;;5072071;28;20268;-58
2022/01/03 09:58:04;;;;;;;1.87;0.40;;;;;;;;;;5073705;28;20645;-58
2022/01/03 10:00:31;;;;;;;2.67;0.27;;;;;;;;;;5073568;28;20264;-58
2022/01/03 10:02:58;;;;;;;0.57;0.30;;;;;;;;;;5073417;28;20264;-58
2022/01/03 10:05:25;;;;;;;0.63;0.40;;;;;;;;;;5073149;28;20253;-57
2022/01/03 10:07:52;;;;;;;1.30;0.40;;;;;;;;;;5068203;28;20341;-58
2022/01/03 10:10:18;;;;;;;0.27;0.27;;;;;;;;;;5067547;28;20277;-58
2022/01/03 10:12:45;;;;;;;0.83;0.37;;;;;;;;;;5067756;28;20285;-58
2022/01/03 10:15:12;;;;;;;0.40;0.30;;;;;;;;;;5067808;28;20265;-58
2022/01/03 10:17:39;;;;;;;2.73;0.40;;;;;;;;;;5072336;28;20253;-58
2022/01/03 10:20:10;;;;;;;0.37;0.23;;;;;;;;;;5073008;28;20258;-58
2022/01/03 10:22:37;;;;;;;0.53;0.30;;;;;;;;;;5072217;28;20311;-58
2022/01/03 10:25:11;;;;;;;0.47;0.30;;;;;;;;;;5072721;28;20253;-58
2022/01/03 10:27:49;;;;;;;0.40;0.30;;;;;;;;;;5072998;28;20824;-58
2022/01/03 10:30:29;;;;;;;0.90;0.40;;;;;;;;;;5067495;28;20743;-58
2022/01/03 10:32:56;;;;;;;1.20;0.50;;;;;;;;;;5067754;28;20301;-57
2022/01/03 10:35:22;;;;;;;2.00;0.50;;;;;;;;;;5067484;28;20268;-58
2022/01/03 10:37:49;;;;;;;0.40;0.40;;;;;;;;;;5067927;28;20687;-58
2022/01/03 10:40:17;;;;;;;0.67;0.30;;;;;;;;;;5072479;28;20668;-58
2022/01/03 10:42:44;;;;;;;0.53;0.40;;;;;;;;;;5072795;28;20250;-57
2022/01/03 10:45:11;;;;;;;2.17;0.40;;;;;;;;;;5072681;28;20603;-58
2022/01/03 10:47:41;;;;;;;1.70;0.30;;;;;;;;;;5072574;28;20254;-58
2022/01/03 10:50:19;;;;;;;0.50;0.40;;;;;;;;;;5071608;28;20273;-58
2022/01/03 10:52:47;;;;;;;0.30;0.20;;;;;;;;;;5067400;28;20289;-58
2022/01/03 10:55:19;;;;;;;0.50;0.37;;;;;;;;;;5067492;28;20268;-58
2022/01/03 10:57:57;;;;;;;0.47;0.30;;;;;;;;;;5067365;28;20744;-58
2022/01/03 11:00:31;;;;;;;0.63;0.40;;;;;;;;;;5068589;28;20336;-58
2022/01/03 11:05:57;;;;;;;0.70;0.40;;;;;;;;;;5072233;28;20654;-58
2022/01/03 11:11:11;;;;;;;1.80;0.27;;;;;;;;;;5072295;28;20276;-57
2022/01/03 11:13:38;;;;;;;0.27;0.27;;;;;;;;;;5068318;28;20285;-57
2022/01/03 11:16:06;;;;;;;0.90;0.50;;;;;;;;;;5067012;28;20274;-58
2022/01/03 11:18:34;;;;;;;1.10;0.50;;;;;;;;;;5067129;28;20340;-58
2022/01/03 11:21:11;;;;;;;0.23;0.23;;;;;;;;;;5067343;28;20276;-58
2022/01/03 11:23:39;;;;;;;0.83;0.30;;;;;;;;;;5070639;28;20250;-58
2022/01/03 11:26:07;;;;;;;0.87;0.67;;;;;;;;;;5072285;28;20319;-57
2022/01/03 11:28:34;;;;;;;1.30;0.37;;;;;;;;;;5071889;28;20257;-58
2022/01/03 11:31:02;;;;;;;3.30;0.60;;;;;;;;;;5072161;28;20594;-58
2022/01/03 11:33:29;;;;;;;0.60;0.50;;;;;;;;;;5072400;28;20289;-57
2022/01/03 11:35:58;;;;;;;0.40;0.40;;;;;;;;;;5072174;28;20257;-57
2022/01/03 11:38:26;;;;;;;1.03;0.40;;;;;;;;;;5071118;28;20261;-58
2022/01/03 11:40:53;;;;;;;0.77;0.40;;;;;;;;;;5070936;28;20611;-58
2022/01/03 11:43:20;;;;;;;2.50;0.40;;;;;;;;;;5070456;28;20257;-58
2022/01/03 11:45:46;;;;;;;0.83;0.40;;;;;;;;;;5074342;28;20300;-57
2022/01/03 11:48:13;;;;;;;1.73;0.50;;;;;;;;;;5075783;28;20719;-58
2022/01/03 11:50:41;;;;;;;0.63;0.40;;;;;;;;;;5075868;28;20253;-58
2022/01/03 11:53:08;;;;;;;1.73;0.60;;;;;;;;;;5075885;28;20291;-57
2022/01/03 11:55:36;;;;;;;1.73;0.40;;;;;;;;;;5075288;28;20604;-58
2022/01/03 12:03:42;;;;;;;0.43;0.33;;;;;;;;;;5070958;28;20269;-58
2022/01/03 12:06:10;;;;;;;0.43;0.30;;;;;;;;;;5070448;28;20735;-58
2022/01/03 12:08:38;;;;;;;1.80;0.43;;;;;;;;;;5075294;28;20311;-58
2022/01/03 12:11:18;;;;;;;0.70;0.40;;;;;;;;;;5075394;28;20269;-58
2022/01/03 12:13:55;;;;;;;2.23;0.60;;;;;;;;;;5075313;28;20775;-57
2022/01/03 12:16:40;;;;;;;2.00;0.70;;;;;;;;;;5075344;28;20265;-58
2022/01/03 12:19:09;;;;;;;0.65;0.45;;;;;;;;;;5073923;28;20261;-57
2022/01/03 12:21:51;;;;;;;1.13;0.50;;;;;;;;;;5069772;28;20037;-58
2022/01/03 12:24:27;;;;;;;1.37;0.80;;;;;;;;;;5070105;28;20334;-58
2022/01/03 12:27:12;;;;;;;0.97;0.33;;;;;;;;;;5070166;28;20789;-58
2022/01/03 12:29:58;;;;;;;0.73;0.40;;;;;;;;;;5072614;28;20269;-58
2022/01/03 12:32:26;;;;;;;1.10;0.57;;;;;;;;;;5067734;28;20040;-57
2022/01/03 12:35:23;;;;;;;1.03;0.40;;;;;;;;;;5074889;28;20300;-58
2022/01/03 12:37:55;;;;;;;1.90;0.77;;;;;;;;;;5066450;28;20323;-57
2022/01/03 12:40:27;;;;;;;0.93;0.63;;;;;;;;;;5074848;28;20258;-57
2022/01/03 12:42:54;;;;;;;1.77;0.60;;;;;;;;;;5069572;28;20261;-57
2022/01/03 12:45:30;;;;;;;1.30;0.70;;;;;;;;;;5069528;28;20664;-57
2022/01/03 12:48:12;;;;;;;1.17;0.73;;;;;;;;;;5069595;28;20650;-57
2022/01/03 12:50:54;;;;;;;1.03;0.70;;;;;;;;;;5069803;28;20262;-58
2022/01/03 12:53:20;;;;;;;1.77;0.50;;;;;;;;;;5074563;28;20289;-57
2022/01/03 12:55:48;;;;;;;2.07;0.67;;;;;;;;;;5074211;28;20252;-57
2022/01/03 12:58:17;;;;;;;0.93;0.70;;;;;;;;;;5074497;28;20311;-58
2022/01/03 13:00:46;;;;;;;1.10;0.63;;;;;;;;;;5074600;28;20254;-59
2022/01/03 13:03:32;;;;;;;0.83;0.50;;;;;;;;;;5073175;28;20273;-58
2022/01/03 13:06:15;;;;;;;0.83;0.53;;;;;;;;;;5068854;28;20271;-58
2022/01/03 13:09:01;;;;;;;1.20;0.60;;;;;;;;;;5069317;28;20273;-57
2022/01/03 13:11:28;;;;;;;1.00;0.50;;;;;;;;;;5069376;28;20806;-58
2022/01/03 13:14:10;;;;;;;1.30;0.57;;;;;;;;;;5071219;28;20281;-58
2022/01/03 13:16:40;;;;;;;1.63;0.80;;;;;;;;;;5074432;28;20337;-58
2022/01/03 13:19:08;;;;;;;2.50;1.20;;;;;;;;;;5074341;28;20758;-57
2022/01/03 13:21:43;;;;;;;2.03;0.40;;;;;;;;;;5074044;28;20265;-58
2022/01/03 13:24:09;;;;;;;1.20;0.68;;;;;;;;;;5073535;28;20620;-57
2022/01/03 13:26:50;;;;;;;1.53;0.73;;;;;;;;;;5070332;28;20417;-57
2022/01/03 13:29:17;;;;;;;2.37;0.83;;;;;;;;;;5069036;28;20654;-57
2022/01/03 13:31:43;;;;;;;2.10;0.87;;;;;;;;;;5068862;28;20257;-58
2022/01/03 13:34:10;;;;;;;2.60;1.23;;;;;;;;;;5068977;28;20257;-58
2022/01/03 13:36:38;;;;;;;2.73;1.00;;;;;;;;;;5072013;28;20249;-58
2022/01/03 13:39:24;;;;;;;1.80;0.80;;;;;;;;;;5073719;28;20352;-58
2022/01/03 13:41:52;;;;;;;0.97;0.63;;;;;;;;;;5073674;28;20304;-58
2022/01/03 13:44:43;;;;;;;2.67;0.60;;;;;;;;;;5073512;28;20319;-57
2022/01/03 13:49:56;;;;;;;1.70;0.80;;;;;;;;;;5068864;28;20331;-57
2022/01/03 13:52:27;;;;;;;2.50;1.20;;;;;;;;;;5068148;28;20818;-58
2022/01/03 13:54:55;;;;;;;5.30;1.13;;;;;;;;;;5068446;28;20314;-57
2022/01/03 13:57:22;;;;;;;1.60;0.90;;;;;;;;;;5068373;28;20261;-57
2022/01/03 13:59:49;;;;;;;2.47;1.00;;;;;;;;;;5073458;28;20272;-58
2022/01/03 14:02:16;;;;;;;1.80;1.10;;;;;;;;;;5073375;28;20254;-57
2022/01/03 14:04:42;;;;;;;5.03;1.30;;;;;;;;;;5073161;28;20254;-58
2022/01/03 14:07:10;;;;;;;4.80;1.00;;;;;;;;;;5072662;28;20740;-58
2022/01/03 14:09:44;;;;;;;2.87;1.13;;;;;;;;;;5071934;28;20261;-58
2022/01/03 14:12:15;;;;;;;3.70;1.00;;;;;;;;;;5067998;28;20284;-57
2022/01/03 14:14:45;;;;;;;1.60;0.90;;;;;;;;;;5068039;28;20264;-58
2022/01/03 14:17:12;;;;;;;2.17;1.10;;;;;;;;;;5067997;28;20291;-58
2022/01/03 14:19:39;;;;;;;10.47;1.50;;;;;;;;;;5068323;28;20303;-58
2022/01/03 14:22:12;;;;;;;6.60;1.17;;;;;;;;;;5072720;28;20268;-58
2022/01/03 14:24:59;;;;;;;1.00;0.70;;;;;;;;;;5073143;28;20268;-58
2022/01/03 14:27:34;;;;;;;1.90;0.97;;;;;;;;;;5068246;28;20090;-58
2022/01/03 14:30:12;;;;;;;1.27;0.70;;;;;;;;;;5072649;28;20047;-59
2022/01/03 14:32:39;;;;;;;1.87;1.10;;;;;;;;;;5069532;28;20059;-58
2022/01/03 14:35:07;;;;;;;1.93;1.20;;;;;;;;;;5067482;28;20033;-58
2022/01/03 14:37:35;;;;;;;1.13;0.67;;;;;;;;;;5067573;28;20058;-58
2022/01/03 14:40:03;;;;;;;5.03;0.90;;;;;;;;;;5067399;28;20028;-58
2022/01/03 14:42:39;;;;;;;2.13;0.87;;;;;;;;;;5070381;28;20056;-58
2022/01/03 14:45:14;;;;;;;2.83;1.30;;;;;;;;;;5072640;28;20468;-58
2022/01/03 14:47:42;;;;;;;3.17;1.60;;;;;;;;;;5072619;28;20067;-58
2022/01/03 14:50:09;;;;;;;4.67;1.40;;;;;;;;;;5072341;28;20032;-59
2022/01/03 14:52:37;;;;;;;1.63;0.90;;;;;;;;;;5072247;28;20040;-58
2022/01/03 14:55:05;;;;;;;4.00;1.43;;;;;;;;;;5068297;28;20564;-59
2022/01/03 14:57:31;;;;;;;1.77;1.10;;;;;;;;;;5067062;28;20094;-58
2022/01/03 14:59:59;;;;;;;8.23;1.50;;;;;;;;;;5067618;28;20028;-58
2022/01/03 15:02:26;;;;;;;2.83;1.07;;;;;;;;;;5067430;28;20052;-59
2022/01/03 15:04:54;;;;;;;4.53;1.17;;;;;;;;;;5070508;28;20028;-59
2022/01/03 15:07:22;;;;;;;2.80;1.20;;;;;;;;;;5072404;28;20017;-58
2022/01/03 15:09:49;;;;;;;2.27;1.07;;;;;;;;;;5072503;28;20036;-58
2022/01/03 15:12:16;;;;;;;2.67;1.23;;;;;;;;;;5072166;28;20115;-58
2022/01/03 15:14:42;;;;;;;10.33;2.23;;;;;;;;;;5072424;28;20464;-58
2022/01/03 15:17:09;;;;;;;2.70;1.30;;;;;;;;;;5068229;28;20029;-58
2022/01/03 15:19:36;;;;;;;2.10;1.13;;;;;;;;;;5067351;28;20055;-58
2022/01/03 15:22:03;;;;;;;2.07;1.10;;;;;;;;;;5066841;28;20029;-58
2022/01/03 15:24:29;;;;;;;2.40;1.37;;;;;;;;;;5067278;28;20403;-58
2022/01/03 15:26:56;;;;;;;6.90;1.70;;;;;;;;;;5070094;28;20032;-58
2022/01/03 15:29:23;;;;;;;6.73;2.10;;;;;;;;;;5072056;28;20021;-58
2022/01/03 15:31:49;;;;;;;2.53;1.40;;;;;;;;;;5072066;28;20031;-58
2022/01/03 15:34:16;;;;;;;4.40;1.37;;;;;;;;;;5072219;28;20024;-59
2022/01/03 15:36:43;;;;;;;2.30;1.17;;;;;;;;;;5071536;28;20375;-59
2022/01/03 15:39:10;;;;;;;8.27;1.60;;;;;;;;;;5068589;28;20093;-59
2022/01/03 15:41:36;;;;;;;3.37;1.67;;;;;;;;;;5066965;28;20066;-59
2022/01/03 15:44:03;;;;;;;4.10;1.40;;;;;;;;;;5066974;28;20025;-58
2022/01/03 15:46:30;;;;;;;3.93;1.63;;;;;;;;;;5066958;28;20059;-59
2022/01/03 15:48:56;;;;;;;4.40;1.40;;;;;;;;;;5069800;28;20156;-59